MMAS/AGU METAR and TAF weather

Enter ICAO airport designator
Station Type Date Time Source
MMAS METAR 2022/11/26 08:44 UTC NOAA

MMAS 260844Z 16008KT 8SM SKC 10/03 A3023 RMK SLP/// 5//// 9// HY


Station Type Date Time Source
MMAS Decoded METAR 2022/11/26 08:44 UTC NOAA

Aguascalientes, Ags., Mexico (MMAS) 21-53N 102-18W
Nov 26, 2022 - 03:44 AM EST / 2022.11.26 0844 UTC
Wind: from the SSE (160 degrees) at 9 MPH (8 KT):0
Visibility: 8 mile(s):0
Sky conditions: clear
Temperature: 50 F (10 C)
Dew Point: 37 F (3 C)
Relative Humidity: 61%
Pressure (altimeter): 30.23 in. Hg (1023 hPa)
ob: MMAS 260844Z 16008KT 8SM SKC 10/03 A3023 RMK SLP/// 5//// 9// HY
cycle: 8

Station Type Date Time Source
MMAS TAF 2022/11/26 06:27 UTC NOAA

TAF MMAS 260520Z 2606/2706 00000KT P6SM SKC
FM261600 20010KT P6SM SCT030
BECMG 2621/2622 SCT040 SCT200
FM270300 00000KT P6SM SCT200

Example: see airport list